Time;durP1;ratioP1;P1;durP2;ratioP2;P2;SDS_P1;SDS_P2;PMS_P1;PMS_P2;Temp;Humidity;BMP_temperature;BMP_pressure;BME280_temperature;BME280_humidity;BME280_pressure;Samples;Min_cycle;Max_cycle;Signal;HPM_P1;HPM_P2
2022/03/19 00:00:42;;;;;;;6.23;5.43;;;23.10;31.10;;;;;;4927965;29;20434;-73
2022/03/19 00:03:08;;;;;;;7.22;5.53;;;23.10;31.00;;;;;;4930395;29;20397;-73
2022/03/19 00:05:34;;;;;;;6.80;5.90;;;23.20;31.10;;;;;;4927983;29;20416;-71
2022/03/19 00:08:01;;;;;;;5.72;5.03;;;23.10;31.00;;;;;;4937021;29;20402;-73
2022/03/19 00:10:26;;;;;;;6.95;5.65;;;23.10;31.00;;;;;;4903771;29;20405;-73
2022/03/19 00:12:52;;;;;;;6.72;5.70;;;23.10;31.00;;;;;;4932227;29;20460;-71
2022/03/19 00:15:18;;;;;;;6.40;5.60;;;23.10;31.00;;;;;;4909123;29;20442;-73
2022/03/19 00:17:44;;;;;;;5.97;5.37;;;23.00;31.00;;;;;;4924950;29;20861;-72
2022/03/19 00:20:11;;;;;;;5.85;4.82;;;23.00;31.00;;;;;;4904859;29;20448;-70
2022/03/19 00:22:38;;;;;;;6.60;5.60;;;23.10;31.10;;;;;;4883786;29;20515;-71
2022/03/19 00:25:04;;;;;;;6.20;5.35;;;23.00;31.00;;;;;;4891188;29;20837;-74
2022/03/19 00:27:30;;;;;;;7.05;5.63;;;23.00;31.00;;;;;;4889453;29;20403;-73
2022/03/19 00:29:56;;;;;;;6.38;5.07;;;23.00;31.00;;;;;;4884647;29;20408;-71
2022/03/19 00:32:22;;;;;;;6.00;5.33;;;23.00;30.90;;;;;;4893861;29;20410;-71
2022/03/19 00:34:47;;;;;;;6.20;5.60;;;23.00;30.90;;;;;;4883823;29;20818;-71
2022/03/19 00:37:13;;;;;;;6.93;5.90;;;23.00;30.90;;;;;;4891292;29;20986;-71
2022/03/19 00:39:39;;;;;;;6.38;5.20;;;23.00;30.90;;;;;;4890230;29;20942;-73
2022/03/19 00:42:04;;;;;;;6.00;5.40;;;23.00;30.80;;;;;;4884811;29;20461;-73
2022/03/19 00:44:30;;;;;;;6.63;5.23;;;23.10;30.80;;;;;;4894777;29;20905;-70
2022/03/19 00:46:55;;;;;;;6.43;5.45;;;23.10;30.80;;;;;;4885015;29;20794;-70
2022/03/19 00:49:21;;;;;;;5.73;5.13;;;23.00;30.80;;;;;;4889969;29;20405;-70
2022/03/19 00:51:47;;;;;;;6.18;5.25;;;23.00;30.70;;;;;;4891072;29;20446;-71
2022/03/19 00:54:15;;;;;;;6.30;5.53;;;23.00;30.70;;;;;;4881894;29;20441;-72
2022/03/19 00:56:42;;;;;;;5.90;5.05;;;23.00;30.70;;;;;;4894698;29;20401;-70
2022/03/19 00:59:08;;;;;;;6.43;5.35;;;23.00;30.80;;;;;;4887278;29;20412;-71
2022/03/19 01:01:35;;;;;;;5.93;5.10;;;23.00;30.80;;;;;;4887625;29;20449;-73
2022/03/19 01:04:01;;;;;;;6.00;5.15;;;23.00;30.80;;;;;;4886051;29;20415;-72
2022/03/19 01:06:26;;;;;;;5.70;5.10;;;23.00;30.70;;;;;;4889282;29;20405;-71
2022/03/19 01:08:52;;;;;;;6.78;5.60;;;23.00;30.70;;;;;;4890999;29;20407;-72
2022/03/19 01:11:23;;;;;;;6.10;5.50;;;23.00;30.70;;;;;;4888605;29;20420;-72
2022/03/19 01:13:52;;;;;;;5.90;4.95;;;23.00;30.70;;;;;;4887547;29;20430;-70
2022/03/19 01:16:19;;;;;;;6.85;5.35;;;23.00;30.70;;;;;;4887333;29;20435;-70
2022/03/19 01:18:49;;;;;;;6.28;5.20;;;23.00;30.60;;;;;;4888651;29;20403;-73
2022/03/19 01:21:15;;;;;;;5.93;5.20;;;23.00;30.60;;;;;;4900580;29;20446;-70
2022/03/19 01:23:41;;;;;;;5.80;5.00;;;23.00;31.20;;;;;;4905739;29;20816;-69
2022/03/19 01:26:07;;;;;;;6.53;4.93;;;23.00;30.50;;;;;;4905741;29;20407;-73
2022/03/19 01:28:33;;;;;;;5.63;5.00;;;22.90;30.50;;;;;;4908420;29;20885;-70
2022/03/19 01:30:58;;;;;;;5.90;5.13;;;23.00;30.60;;;;;;4905823;29;20413;-73
2022/03/19 01:33:24;;;;;;;5.70;5.00;;;22.90;30.50;;;;;;4906911;29;20398;-70
2022/03/19 01:35:50;;;;;;;6.50;5.20;;;22.90;30.50;;;;;;4908201;29;20535;-71
2022/03/19 01:38:15;;;;;;;5.65;5.03;;;22.90;30.50;;;;;;4904918;29;20408;-73
2022/03/19 01:40:41;;;;;;;6.10;5.40;;;22.90;30.50;;;;;;4908178;29;20433;-70
2022/03/19 01:43:07;;;;;;;5.85;5.20;;;22.90;30.50;;;;;;4904672;29;20403;-71
2022/03/19 01:45:33;;;;;;;5.93;5.20;;;22.90;30.50;;;;;;4906152;29;20464;-74
2022/03/19 01:47:59;;;;;;;5.95;5.15;;;22.90;30.50;;;;;;4905712;29;20467;-73
2022/03/19 01:50:26;;;;;;;6.22;4.93;;;22.90;30.50;;;;;;4907830;29;20492;-71
2022/03/19 01:52:52;;;;;;;7.73;5.10;;;22.90;30.50;;;;;;4906801;29;20397;-71
2022/03/19 01:55:21;;;;;;;5.75;5.10;;;22.90;30.50;;;;;;4907601;29;20403;-71
2022/03/19 01:57:47;;;;;;;5.57;4.97;;;22.90;30.50;;;;;;4904926;29;20445;-71
2022/03/19 02:00:19;;;;;;;5.70;5.10;;;22.90;30.50;;;;;;4906396;29;20426;-70
2022/03/19 02:02:47;;;;;;;6.60;5.40;;;22.80;30.40;;;;;;4904586;29;20393;-70
2022/03/19 02:05:15;;;;;;;5.97;5.25;;;22.80;30.40;;;;;;4903427;29;20765;-69
2022/03/19 02:07:42;;;;;;;6.22;5.28;;;22.80;30.40;;;;;;4906136;29;20891;-69
2022/03/19 02:10:09;;;;;;;6.03;5.22;;;22.80;30.40;;;;;;4907490;29;20875;-69
2022/03/19 02:12:36;;;;;;;6.18;5.30;;;22.80;30.40;;;;;;4906559;29;20407;-70
2022/03/19 02:15:02;;;;;;;6.00;4.97;;;22.80;30.30;;;;;;4907026;29;20463;-74
2022/03/19 02:17:27;;;;;;;6.25;5.38;;;22.80;30.40;;;;;;4906177;29;20406;-69
2022/03/19 02:19:55;;;;;;;5.55;4.90;;;22.90;30.40;;;;;;4904047;29;20446;-71
2022/03/19 02:22:22;;;;;;;6.22;4.93;;;22.90;30.40;;;;;;4906333;29;20398;-73
2022/03/19 02:27:34;;;;;;;6.28;5.30;;;22.80;30.30;;;;;;4903698;29;20436;-70
2022/03/19 02:30:00;;;;;;;6.70;5.22;;;22.80;30.30;;;;;;4906334;29;20399;-72
2022/03/19 02:32:26;;;;;;;5.63;4.90;;;22.80;30.80;;;;;;4904890;29;20415;-70
2022/03/19 02:34:53;;;;;;;5.38;4.78;;;22.90;30.30;;;;;;4905799;29;20408;-71
2022/03/19 02:37:19;;;;;;;5.93;5.15;;;22.80;30.20;;;;;;4905929;29;20407;-70
2022/03/19 02:39:45;;;;;;;6.10;5.07;;;22.80;30.30;;;;;;4903826;29;20799;-70
2022/03/19 02:42:14;;;;;;;5.82;5.22;;;22.80;30.30;;;;;;4910609;29;20401;-72
2022/03/19 02:44:40;;;;;;;6.30;4.80;;;22.80;30.30;;;;;;4905348;29;20399;-71
2022/03/19 02:47:07;;;;;;;6.10;5.00;;;22.80;30.30;;;;;;4896723;29;20458;-73
2022/03/19 02:49:33;;;;;;;5.57;4.97;;;22.80;30.30;;;;;;4896775;29;20415;-72
2022/03/19 02:51:59;;;;;;;5.55;4.95;;;22.80;30.30;;;;;;4896704;29;20406;-74
2022/03/19 02:54:27;;;;;;;6.00;4.82;;;22.70;30.30;;;;;;4896438;29;20481;-71
2022/03/19 02:56:53;;;;;;;5.70;5.10;;;22.80;30.30;;;;;;4896777;29;20431;-71
2022/03/19 02:59:20;;;;;;;5.70;5.10;;;22.80;30.20;;;;;;4896523;29;20410;-72
2022/03/19 03:01:52;;;;;;;6.18;4.90;;;22.70;30.20;;;;;;4896498;29;20411;-70
2022/03/19 03:04:18;;;;;;;5.53;4.93;;;22.70;30.20;;;;;;4896539;29;20470;-70
2022/03/19 03:06:46;;;;;;;6.35;4.97;;;22.70;30.30;;;;;;4896241;29;20421;-71
2022/03/19 03:09:13;;;;;;;6.32;5.05;;;22.70;30.20;;;;;;4895286;29;20403;-71
2022/03/19 03:11:39;;;;;;;5.85;5.10;;;22.70;30.20;;;;;;4896345;29;20422;-71
2022/03/19 03:14:08;;;;;;;5.55;4.95;;;22.70;30.20;;;;;;4896322;29;20490;-73
2022/03/19 03:16:34;;;;;;;5.80;5.20;;;22.70;30.10;;;;;;4895867;29;20932;-72
2022/03/19 03:19:08;;;;;;;6.30;5.00;;;22.70;30.20;;;;;;4896296;29;20414;-73
2022/03/19 03:21:35;;;;;;;5.95;4.88;;;22.70;30.20;;;;;;4914829;29;20795;-73
2022/03/19 03:24:02;;;;;;;5.97;4.88;;;22.70;30.20;;;;;;4915200;29;20399;-74
2022/03/19 03:26:28;;;;;;;5.88;5.28;;;22.70;30.20;;;;;;4915079;29;20429;-72
2022/03/19 03:28:54;;;;;;;6.53;5.00;;;22.70;30.20;;;;;;4915077;29;20397;-72
2022/03/19 03:31:20;;;;;;;5.85;5.25;;;22.70;30.20;;;;;;4915226;29;20397;-70
2022/03/19 03:33:46;;;;;;;5.70;5.10;;;22.70;30.10;;;;;;4898070;29;20409;-73
2022/03/19 03:36:12;;;;;;;5.67;5.07;;;22.70;30.10;;;;;;4915115;29;20401;-72
2022/03/19 03:38:37;;;;;;;6.72;5.32;;;22.70;30.10;;;;;;4914543;29;20401;-73
2022/03/19 03:41:03;;;;;;;5.63;5.00;;;22.70;30.10;;;;;;4915006;29;20461;-70
2022/03/19 03:43:29;;;;;;;6.10;5.33;;;22.70;30.10;;;;;;4914956;29;20884;-71
2022/03/19 03:45:55;;;;;;;5.65;5.07;;;22.70;30.10;;;;;;4915020;29;20405;-73
2022/03/19 03:48:20;;;;;;;6.20;5.17;;;22.70;30.10;;;;;;4915035;29;20797;-71
2022/03/19 03:50:49;;;;;;;6.15;5.28;;;22.70;30.00;;;;;;4914710;29;20938;-71
2022/03/19 03:53:16;;;;;;;6.30;5.32;;;22.70;30.10;;;;;;4914941;29;20393;-71
2022/03/19 03:55:41;;;;;;;6.60;5.50;;;22.70;30.10;;;;;;4914875;29;20404;-70
2022/03/19 03:58:08;;;;;;;6.00;5.37;;;22.70;30.00;;;;;;4898084;29;20397;-70
2022/03/19 04:00:34;;;;;;;5.70;5.10;;;22.60;30.00;;;;;;4897362;29;20432;-73
2022/03/19 04:03:00;;;;;;;7.18;5.20;;;22.70;30.10;;;;;;4914955;29;20441;-72
2022/03/19 04:05:26;;;;;;;5.90;4.93;;;22.60;30.00;;;;;;4914819;29;20975;-70
2022/03/19 04:07:52;;;;;;;6.32;5.22;;;22.60;30.10;;;;;;4914980;29;20390;-70
2022/03/19 04:10:18;;;;;;;5.73;5.13;;;22.60;30.10;;;;;;4914783;29;20447;-74
2022/03/19 04:12:44;;;;;;;7.55;5.60;;;22.60;30.20;;;;;;4897232;29;20914;-72
2022/03/19 04:15:10;;;;;;;6.30;5.37;;;22.50;30.40;;;;;;4914838;29;20401;-70
2022/03/19 04:17:37;;;;;;;6.03;4.95;;;22.40;30.60;;;;;;4920174;29;20480;-70
2022/03/19 04:20:04;;;;;;;6.40;5.05;;;22.50;30.90;;;;;;4894550;29;20428;-71
2022/03/19 04:22:35;;;;;;;6.45;5.40;;;22.60;31.00;;;;;;4893371;29;20403;-70
2022/03/19 04:25:01;;;;;;;5.90;5.30;;;22.60;31.00;;;;;;4895604;29;20963;-70
2022/03/19 04:27:27;;;;;;;6.97;5.45;;;22.60;33.80;;;;;;4895772;29;20415;-70
2022/03/19 04:29:52;;;;;;;7.83;5.40;;;22.70;31.80;;;;;;4889653;29;20462;-73
2022/03/19 04:32:18;;;;;;;7.50;5.45;;;22.70;32.50;;;;;;4887070;29;20467;-71
2022/03/19 04:34:44;;;;;;;6.90;5.30;;;22.70;32.60;;;;;;4888260;29;20401;-72
2022/03/19 04:37:09;;;;;;;8.90;5.57;;;22.70;32.50;;;;;;4887384;29;20411;-72
2022/03/19 04:39:35;;;;;;;6.87;5.47;;;22.80;33.00;;;;;;4885182;29;20397;-73
2022/03/19 04:42:00;;;;;;;7.47;5.70;;;22.80;32.80;;;;;;4880416;29;20426;-70
2022/03/19 04:44:26;;;;;;;7.70;5.22;;;22.80;32.70;;;;;;4878755;29;20409;-71
2022/03/19 04:46:52;;;;;;;9.73;5.40;;;22.80;32.60;;;;;;4880103;29;20836;-70
2022/03/19 04:49:18;;;;;;;8.70;5.40;;;22.80;32.50;;;;;;4880046;29;20543;-70
2022/03/19 04:51:43;;;;;;;8.00;5.70;;;22.80;32.70;;;;;;4878647;29;20508;-73
2022/03/19 04:54:10;;;;;;;8.85;5.60;;;22.80;32.70;;;;;;4880149;29;20952;-72
2022/03/19 04:56:36;;;;;;;6.50;5.07;;;22.80;32.60;;;;;;4879563;29;20745;-71
2022/03/19 04:59:03;;;;;;;6.75;5.10;;;22.80;31.40;;;;;;4879971;29;20407;-71
2022/03/19 05:01:30;;;;;;;6.93;4.97;;;22.70;31.50;;;;;;4878534;29;20424;-71
2022/03/19 05:03:56;;;;;;;6.50;5.20;;;22.70;31.00;;;;;;4878546;29;20413;-70
2022/03/19 05:06:22;;;;;;;7.65;4.97;;;22.70;30.80;;;;;;4879628;29;20491;-72
2022/03/19 05:11:34;;;;;;;7.97;4.90;;;22.70;30.60;;;;;;4879713;29;20403;-71
2022/03/19 05:13:59;;;;;;;6.35;5.18;;;22.70;30.60;;;;;;4879441;29;20454;-72
2022/03/19 05:16:25;;;;;;;6.43;5.13;;;22.70;30.50;;;;;;4879624;29;20486;-70
2022/03/19 05:18:51;;;;;;;6.73;5.40;;;22.70;30.60;;;;;;4877981;29;20404;-71
2022/03/19 05:21:17;;;;;;;7.20;5.18;;;22.70;30.60;;;;;;4912085;29;20433;-71
2022/03/19 05:23:45;;;;;;;7.65;5.40;;;22.70;30.50;;;;;;4917088;29;20406;-71
2022/03/19 05:26:11;;;;;;;6.22;5.03;;;22.70;30.50;;;;;;4917201;29;20413;-71
2022/03/19 05:28:36;;;;;;;6.65;4.93;;;22.70;30.50;;;;;;4899405;29;20401;-72
2022/03/19 05:31:03;;;;;;;6.72;5.25;;;22.60;30.40;;;;;;4916992;29;20461;-70
2022/03/19 05:36:13;;;;;;;6.53;5.13;;;22.60;30.40;;;;;;4917282;29;20441;-72
2022/03/19 05:38:39;;;;;;;5.70;4.70;;;22.60;30.30;;;;;;4898243;29;20413;-72
2022/03/19 05:41:05;;;;;;;6.22;5.25;;;22.60;30.30;;;;;;4900107;29;20484;-70
2022/03/19 05:43:30;;;;;;;5.75;4.70;;;22.60;30.20;;;;;;4916848;29;20394;-71
2022/03/19 05:45:56;;;;;;;6.68;4.97;;;22.60;30.10;;;;;;4916806;29;20408;-71
2022/03/19 05:48:22;;;;;;;7.47;5.43;;;22.60;30.70;;;;;;4916835;29;20431;-69
2022/03/19 05:50:47;;;;;;;6.28;5.68;;;22.50;30.50;;;;;;4916230;29;20419;-69
2022/03/19 05:53:13;;;;;;;6.93;5.38;;;22.40;30.50;;;;;;4916730;29;20907;-72
2022/03/19 05:55:39;;;;;;;6.70;5.60;;;22.20;29.80;;;;;;4916484;29;20397;-69
2022/03/19 05:58:04;;;;;;;7.20;5.88;;;22.20;29.80;;;;;;4916709;29;20405;-69
2022/03/19 06:00:30;;;;;;;7.25;6.10;;;22.10;29.70;;;;;;4916106;29;20480;-69
2022/03/19 06:02:56;;;;;;;8.67;6.13;;;22.10;29.60;;;;;;4899196;29;20461;-72
2022/03/19 06:05:22;;;;;;;7.93;6.25;;;22.20;29.90;;;;;;4916519;29;20452;-69
2022/03/19 06:07:47;;;;;;;7.83;5.80;;;22.20;29.80;;;;;;4899287;29;20409;-69
2022/03/19 06:10:14;;;;;;;6.55;5.70;;;22.20;29.70;;;;;;4916247;29;20398;-71
2022/03/19 06:12:40;;;;;;;7.05;5.97;;;22.10;29.60;;;;;;4898677;29;20404;-71
2022/03/19 06:15:06;;;;;;;8.73;5.75;;;22.10;29.70;;;;;;4916312;29;20417;-70
2022/03/19 06:17:32;;;;;;;9.20;6.43;;;22.10;29.80;;;;;;4915279;29;20409;-71
2022/03/19 06:19:58;;;;;;;9.10;6.43;;;22.10;30.00;;;;;;4915783;29;20432;-71
2022/03/19 06:22:23;;;;;;;7.65;5.97;;;22.00;30.10;;;;;;4899078;29;20437;-70
2022/03/19 06:24:49;;;;;;;8.50;6.47;;;22.10;30.20;;;;;;4914925;29;20413;-70
2022/03/19 06:27:15;;;;;;;8.43;6.23;;;22.10;30.40;;;;;;4915847;29;20461;-73
2022/03/19 06:29:40;;;;;;;7.65;5.80;;;22.10;30.40;;;;;;4898910;29;20911;-72
2022/03/19 06:32:06;;;;;;;9.20;5.87;;;22.20;30.20;;;;;;4898893;29;20842;-71
2022/03/19 06:34:32;;;;;;;7.90;6.10;;;22.10;30.10;;;;;;4915488;29;20478;-71
2022/03/19 06:39:42;;;;;;;9.45;5.65;;;22.10;30.10;;;;;;4915978;29;20951;-71
2022/03/19 06:42:09;;;;;;;7.60;5.85;;;22.20;30.10;;;;;;4915709;29;20418;-70
2022/03/19 06:44:35;;;;;;;7.70;5.80;;;22.20;30.10;;;;;;4915416;29;20432;-70
2022/03/19 06:47:01;;;;;;;7.53;5.90;;;22.20;30.10;;;;;;4915247;29;20409;-70
2022/03/19 06:49:28;;;;;;;7.55;6.00;;;22.20;30.20;;;;;;4915262;29;20480;-70
2022/03/19 06:51:54;;;;;;;9.00;5.78;;;22.20;30.10;;;;;;4915532;29;20779;-70
2022/03/19 06:54:20;;;;;;;8.73;6.07;;;22.20;30.50;;;;;;4915522;29;20460;-70
2022/03/19 06:56:46;;;;;;;7.55;5.65;;;22.20;30.70;;;;;;4915120;29;20409;-68
2022/03/19 06:59:11;;;;;;;7.87;5.73;;;22.20;30.50;;;;;;4915538;29;20401;-69
2022/03/19 07:01:37;;;;;;;7.70;5.80;;;22.20;30.50;;;;;;4898173;29;20975;-70
2022/03/19 07:04:03;;;;;;;7.30;5.93;;;22.20;30.50;;;;;;4915455;29;20393;-71
2022/03/19 07:06:30;;;;;;;7.53;6.00;;;22.20;30.60;;;;;;4895739;29;20409;-70
2022/03/19 07:08:55;;;;;;;7.53;5.80;;;22.20;30.50;;;;;;4905978;29;20444;-70
2022/03/19 07:11:21;;;;;;;8.27;5.32;;;22.10;30.70;;;;;;4906851;29;20405;-69
2022/03/19 07:13:47;;;;;;;8.97;5.47;;;22.10;31.10;;;;;;4906141;29;20389;-69
2022/03/19 07:16:15;;;;;;;7.45;5.53;;;22.10;31.40;;;;;;4909922;29;20805;-72
2022/03/19 07:18:40;;;;;;;9.80;5.63;;;22.20;33.10;;;;;;4914915;29;20452;-69
2022/03/19 07:21:06;;;;;;;10.90;6.93;;;22.30;31.70;;;;;;4914880;29;20429;-70
2022/03/19 07:23:32;;;;;;;8.88;6.00;;;22.30;31.60;;;;;;4914874;29;20397;-70
2022/03/19 07:25:59;;;;;;;9.13;5.97;;;22.30;31.50;;;;;;4915104;29;20551;-73
2022/03/19 07:28:26;;;;;;;9.77;6.37;;;22.30;31.50;;;;;;4915148;29;20484;-70
2022/03/19 07:30:52;;;;;;;10.10;5.70;;;22.30;31.70;;;;;;4914511;29;20950;-69
2022/03/19 07:33:18;;;;;;;13.27;6.00;;;22.30;33.30;;;;;;4897834;29;20513;-74
2022/03/19 07:35:44;;;;;;;9.68;6.00;;;22.30;33.30;;;;;;4913910;29;20409;-71
2022/03/19 07:38:13;;;;;;;7.73;5.93;;;22.40;33.30;;;;;;4915376;29;20448;-73
2022/03/19 07:43:25;;;;;;;7.90;6.07;;;22.40;32.50;;;;;;4915345;29;20393;-73
2022/03/19 07:45:52;;;;;;;8.70;5.80;;;22.50;32.60;;;;;;4915028;29;20413;-72
2022/03/19 07:48:19;;;;;;;7.85;6.03;;;22.40;32.90;;;;;;4914986;29;20398;-68
2022/03/19 07:50:45;;;;;;;8.25;5.85;;;22.50;32.90;;;;;;4914516;29;20500;-71
2022/03/19 07:53:11;;;;;;;9.40;5.55;;;22.50;33.30;;;;;;4915047;29;20476;-72
2022/03/19 07:55:37;;;;;;;9.93;5.93;;;22.50;33.30;;;;;;4914903;29;20401;-70
2022/03/19 07:58:04;;;;;;;9.35;6.13;;;22.50;32.90;;;;;;4915005;29;20393;-70
2022/03/19 08:00:30;;;;;;;8.45;5.75;;;22.50;32.70;;;;;;4914852;29;20908;-72
2022/03/19 08:02:56;;;;;;;10.00;6.07;;;22.60;32.90;;;;;;4917839;29;20492;-73
2022/03/19 08:05:21;;;;;;;8.02;5.65;;;22.60;32.10;;;;;;4918505;29;20500;-70
2022/03/19 08:07:47;;;;;;;7.72;6.20;;;22.70;32.20;;;;;;4918648;29;20399;-69
2022/03/19 08:10:13;;;;;;;8.57;5.70;;;22.70;32.20;;;;;;4918408;29;20405;-70
2022/03/19 08:12:42;;;;;;;8.60;5.97;;;22.80;32.10;;;;;;4918057;29;20399;-70
2022/03/19 08:15:10;;;;;;;7.90;5.85;;;22.80;32.20;;;;;;4901152;29;20437;-73
2022/03/19 08:17:41;;;;;;;8.68;5.82;;;22.90;31.90;;;;;;4901326;29;20492;-70
2022/03/19 08:20:08;;;;;;;10.18;5.95;;;22.90;32.10;;;;;;4886164;29;20441;-73
2022/03/19 08:22:34;;;;;;;7.68;6.05;;;22.90;31.80;;;;;;4918140;29;20397;-72
2022/03/19 08:25:01;;;;;;;6.28;5.53;;;22.90;31.60;;;;;;4917746;29;20401;-72
2022/03/19 08:27:27;;;;;;;7.43;6.00;;;23.00;32.20;;;;;;4901277;29;20413;-74
2022/03/19 08:29:53;;;;;;;8.15;5.85;;;23.00;31.70;;;;;;4901256;29;20402;-73
2022/03/19 08:32:20;;;;;;;8.65;5.93;;;23.00;31.60;;;;;;4918133;29;20408;-72
2022/03/19 08:34:47;;;;;;;8.73;6.05;;;23.10;31.70;;;;;;4917569;29;20550;-70
2022/03/19 08:37:12;;;;;;;7.05;5.82;;;23.10;31.60;;;;;;4918040;29;20479;-70
2022/03/19 08:42:22;;;;;;;8.27;5.90;;;23.20;31.00;;;;;;4918271;29;20385;-71
2022/03/19 08:44:49;;;;;;;7.15;5.97;;;23.20;30.90;;;;;;4917266;29;20405;-72
2022/03/19 08:47:14;;;;;;;8.33;5.73;;;23.20;31.00;;;;;;4917857;29;20961;-72
2022/03/19 08:49:40;;;;;;;8.32;5.72;;;23.30;31.00;;;;;;4917762;29;20412;-69
2022/03/19 08:52:06;;;;;;;8.13;6.13;;;23.30;30.80;;;;;;4917443;29;20416;-70
2022/03/19 08:54:32;;;;;;;8.23;6.30;;;23.40;30.80;;;;;;4900834;29;20405;-73
2022/03/19 08:56:57;;;;;;;9.25;6.15;;;23.40;30.80;;;;;;4917234;29;20401;-73
2022/03/19 08:59:23;;;;;;;7.50;6.10;;;23.50;30.70;;;;;;4917686;29;20429;-70
2022/03/19 09:01:52;;;;;;;8.32;6.40;;;23.50;30.50;;;;;;4900305;29;20433;-72
2022/03/19 09:04:18;;;;;;;12.40;10.20;;;23.50;30.50;;;;;;4900571;29;20461;-72
2022/03/19 09:06:44;;;;;;;12.45;9.68;;;23.40;29.80;;;;;;4917211;29;20413;-70
2022/03/19 09:09:11;;;;;;;10.20;8.17;;;23.30;29.00;;;;;;4917226;29;20488;-71
2022/03/19 09:11:37;;;;;;;13.10;9.50;;;23.30;30.40;;;;;;4917463;29;20407;-70
2022/03/19 09:14:05;;;;;;;11.82;9.50;;;23.60;29.80;;;;;;4917304;29;20394;-72
2022/03/19 09:16:31;;;;;;;12.50;9.00;;;23.70;29.30;;;;;;4917305;29;20461;-69
2022/03/19 09:18:57;;;;;;;13.02;8.75;;;23.80;30.00;;;;;;4900006;29;20975;-70
2022/03/19 09:21:24;;;;;;;12.77;8.73;;;23.90;30.80;;;;;;4917048;29;20928;-69
2022/03/19 09:23:49;;;;;;;11.85;8.15;;;23.90;31.10;;;;;;4917039;29;20460;-69
2022/03/19 09:26:16;;;;;;;12.20;8.00;;;24.10;31.00;;;;;;4917183;29;20492;-70
2022/03/19 09:28:43;;;;;;;11.50;7.88;;;24.30;31.00;;;;;;4916413;29;20389;-69
2022/03/19 09:31:08;;;;;;;10.60;7.45;;;24.30;30.90;;;;;;4916863;29;20415;-71
2022/03/19 09:33:34;;;;;;;12.48;7.80;;;24.40;31.10;;;;;;4916916;29;20397;-69
2022/03/19 09:36:01;;;;;;;12.23;7.70;;;24.40;31.10;;;;;;4899858;29;20914;-70
2022/03/19 09:38:30;;;;;;;10.57;7.70;;;24.40;30.90;;;;;;4916899;29;20405;-70
2022/03/19 09:40:56;;;;;;;10.10;7.23;;;24.40;30.70;;;;;;4918747;29;21001;-71
2022/03/19 09:43:23;;;;;;;10.23;7.68;;;24.50;31.10;;;;;;4927087;29;20391;-69
2022/03/19 09:45:49;;;;;;;10.55;7.68;;;24.50;31.00;;;;;;4925728;29;20424;-71
2022/03/19 09:48:14;;;;;;;8.80;7.03;;;24.60;31.10;;;;;;4919575;29;20876;-70
2022/03/19 09:50:41;;;;;;;9.30;7.18;;;24.60;31.80;;;;;;4916473;29;20827;-70
2022/03/19 09:53:08;;;;;;;9.98;7.05;;;24.70;31.30;;;;;;4930641;29;20395;-69
2022/03/19 09:55:36;;;;;;;9.30;7.15;;;24.70;31.40;;;;;;4932639;29;20447;-70
2022/03/19 09:58:03;;;;;;;8.93;6.80;;;24.80;31.30;;;;;;4925711;29;20407;-71
2022/03/19 10:00:29;;;;;;;8.90;7.27;;;24.80;31.60;;;;;;4921467;29;20515;-72
2022/03/19 10:03:08;;;;;;;8.50;7.00;;;24.90;31.90;;;;;;4916683;29;20868;-69
2022/03/19 10:08:39;;;;;;;9.38;7.03;;;25.00;31.70;;;;;;4916497;29;20404;-69
2022/03/19 10:11:10;;;;;;;11.35;7.30;;;25.00;31.20;;;;;;4915979;29;20401;-69
2022/03/19 10:13:42;;;;;;;7.97;6.68;;;25.10;31.10;;;;;;4916171;29;20393;-70
2022/03/19 10:16:08;;;;;;;8.65;6.70;;;25.10;31.30;;;;;;4915937;29;20401;-72
2022/03/19 10:18:36;;;;;;;7.68;6.70;;;25.20;31.00;;;;;;4916761;29;20772;-72
2022/03/19 10:34:01;;;;;;;9.63;7.45;;;25.40;29.90;;;;;;5130834;23;20454;-71
2022/03/19 10:36:38;;;;;;;9.38;7.03;;;25.50;29.80;;;;;;4922438;29;20458;-72
2022/03/19 10:49:28;;;;;;;9.65;7.18;;;25.80;30.70;;;;;;5636968;23;20858;-67
2022/03/19 10:51:56;;;;;;;9.40;7.00;;;25.80;31.20;;;;;;4946783;28;20769;-69
2022/03/19 10:54:22;;;;;;;10.27;6.93;;;25.90;31.70;;;;;;4964491;28;20428;-69
2022/03/19 10:56:49;;;;;;;9.65;7.20;;;26.00;32.50;;;;;;4962870;28;20417;-71
2022/03/19 10:59:16;;;;;;;9.73;7.28;;;26.10;32.20;;;;;;4944927;28;20451;-67
2022/03/19 11:01:42;;;;;;;9.00;6.70;;;26.20;33.10;;;;;;4961392;28;20505;-67
2022/03/19 11:04:09;;;;;;;9.80;6.95;;;26.20;33.20;;;;;;4964733;28;20479;-68
2022/03/19 11:06:40;;;;;;;24.33;10.30;;;26.30;32.90;;;;;;4962482;28;20403;-71
2022/03/19 11:09:10;;;;;;;15.25;7.85;;;26.40;32.60;;;;;;4961847;28;20447;-72
2022/03/19 11:11:57;;;;;;;11.13;7.30;;;26.40;31.90;;;;;;4964304;28;20571;-70
2022/03/19 11:14:26;;;;;;;12.43;7.30;;;26.50;31.10;;;;;;4964021;28;20882;-67
2022/03/19 11:19:48;;;;;;;10.25;7.18;;;26.50;30.00;;;;;;4961317;28;20897;-67
2022/03/19 11:22:14;;;;;;;10.68;7.00;;;26.50;29.70;;;;;;4964558;28;20499;-71
2022/03/19 11:25:22;;;;;;;11.57;7.30;;;26.60;29.60;;;;;;4961900;28;20536;-68
2022/03/19 11:27:50;;;;;;;10.75;7.07;;;26.60;29.40;;;;;;4960627;28;20470;-69
2022/03/19 11:30:20;;;;;;;10.18;7.00;;;26.70;29.40;;;;;;4964508;28;20942;-66
2022/03/19 11:33:02;;;;;;;9.57;6.68;;;26.80;29.30;;;;;;4960188;28;20386;-67
2022/03/19 11:35:28;;;;;;;10.32;7.07;;;26.80;29.10;;;;;;4960593;28;20429;-68
2022/03/19 11:38:15;;;;;;;8.90;6.70;;;26.70;28.90;;;;;;4967982;28;20400;-69
2022/03/19 11:40:45;;;;;;;10.98;7.20;;;26.70;29.20;;;;;;4965943;28;20430;-68
2022/03/19 11:43:16;;;;;;;13.80;7.20;;;26.70;28.90;;;;;;4966438;28;20422;-70
2022/03/19 11:46:02;;;;;;;17.73;9.68;;;26.70;28.50;;;;;;4948561;28;20909;-70
2022/03/19 11:48:42;;;;;;;18.73;8.63;;;26.60;27.50;;;;;;4962549;28;20781;-71
2022/03/19 11:51:38;;;;;;;13.88;8.40;;;26.70;28.20;;;;;;4963337;28;20418;-67
2022/03/19 11:54:17;;;;;;;14.63;8.23;;;26.70;28.10;;;;;;4968746;28;20743;-66
2022/03/19 11:56:43;;;;;;;12.80;8.17;;;26.70;28.00;;;;;;4966413;28;20530;-68
2022/03/19 11:59:35;;;;;;;11.35;7.40;;;26.70;28.00;;;;;;4967560;28;20914;-70
2022/03/19 12:02:06;;;;;;;12.27;7.47;;;26.80;28.00;;;;;;4959593;28;20439;-71
2022/03/19 12:04:55;;;;;;;11.87;7.80;;;26.80;27.80;;;;;;4967381;28;20424;-73
2022/03/19 12:07:47;;;;;;;11.13;7.13;;;26.80;27.70;;;;;;4947905;28;20859;-71
2022/03/19 12:10:18;;;;;;;11.80;7.75;;;26.80;27.70;;;;;;4963569;28;20397;-78
2022/03/19 12:12:45;;;;;;;13.40;7.77;;;26.80;27.70;;;;;;4964152;28;20401;-66
2022/03/19 12:15:33;;;;;;;10.02;7.30;;;26.80;27.60;;;;;;4967099;28;20394;-70
2022/03/19 12:18:27;;;;;;;11.67;7.13;;;26.80;27.60;;;;;;4968703;28;20407;-64
2022/03/19 12:20:55;;;;;;;10.63;6.80;;;26.80;27.50;;;;;;4947704;28;20788;-70
2022/03/19 12:23:21;;;;;;;10.75;6.70;;;26.70;27.80;;;;;;4965523;28;20649;-72
2022/03/19 12:25:58;;;;;;;11.93;7.23;;;26.70;27.70;;;;;;4968888;28;20886;-69
2022/03/19 12:28:24;;;;;;;12.23;7.70;;;26.60;27.90;;;;;;4948283;28;20391;-66
2022/03/19 12:30:50;;;;;;;12.73;7.10;;;26.60;27.60;;;;;;4966148;28;20441;-69
2022/03/19 12:33:16;;;;;;;10.02;6.90;;;26.50;27.80;;;;;;4965948;28;20471;-71
2022/03/19 12:35:44;;;;;;;12.55;7.25;;;26.50;27.70;;;;;;4967534;28;20492;-69
2022/03/19 12:38:10;;;;;;;9.93;6.80;;;26.50;27.90;;;;;;4966063;28;20442;-72
2022/03/19 12:43:34;;;;;;;10.50;6.38;;;26.50;27.80;;;;;;4965070;28;20392;-71
2022/03/19 12:45:59;;;;;;;10.38;6.53;;;26.60;27.90;;;;;;4968071;28;20921;-70
2022/03/19 12:48:31;;;;;;;9.90;6.97;;;26.60;27.90;;;;;;4945325;28;20436;-72
2022/03/19 12:50:57;;;;;;;9.68;6.53;;;26.70;27.90;;;;;;4965073;28;20480;-73
2022/03/19 12:53:35;;;;;;;9.20;6.00;;;26.70;28.00;;;;;;4947480;28;20884;-68
2022/03/19 12:56:19;;;;;;;8.05;6.28;;;26.80;28.00;;;;;;4967940;28;20477;-70
2022/03/19 12:58:50;;;;;;;7.78;6.15;;;26.80;28.00;;;;;;4945506;28;20411;-72
2022/03/19 13:01:19;;;;;;;7.93;5.93;;;26.90;28.00;;;;;;4965619;28;21002;-70
2022/03/19 13:03:45;;;;;;;8.70;6.38;;;26.90;28.00;;;;;;4967347;28;20769;-66
2022/03/19 13:06:11;;;;;;;8.75;6.20;;;26.90;28.00;;;;;;4966203;28;20439;-72
2022/03/19 13:08:48;;;;;;;9.63;5.97;;;26.90;28.00;;;;;;4964266;28;20487;-71
2022/03/19 13:11:15;;;;;;;8.63;6.10;;;26.90;28.10;;;;;;4962682;28;20429;-72
2022/03/19 13:13:42;;;;;;;8.13;5.70;;;26.90;28.00;;;;;;4967254;28;20408;-73
2022/03/19 13:16:08;;;;;;;7.75;5.70;;;27.00;28.10;;;;;;4962941;28;20944;-73
2022/03/19 13:18:37;;;;;;;8.77;5.80;;;27.10;28.10;;;;;;4965612;28;20462;-73
2022/03/19 13:21:11;;;;;;;10.10;7.45;;;27.10;28.10;;;;;;4966379;28;20415;-67
2022/03/19 13:23:40;;;;;;;11.65;9.48;;;27.10;27.60;;;;;;4949629;28;20396;-69
2022/03/19 13:26:07;;;;;;;11.18;8.43;;;27.00;26.90;;;;;;4967659;28;20396;-72
2022/03/19 13:28:33;;;;;;;10.70;8.25;;;27.00;26.60;;;;;;4966199;28;20479;-68
2022/03/19 13:30:59;;;;;;;9.45;7.00;;;27.00;26.90;;;;;;4966357;28;20464;-64
2022/03/19 13:33:31;;;;;;;9.73;6.88;;;26.90;27.00;;;;;;4964793;28;20769;-65
2022/03/19 13:35:57;;;;;;;9.10;7.00;;;27.00;27.30;;;;;;4949791;28;20402;-72